createdAt,value
2018-03-19T00:04:42.034Z,12.36
2018-03-19T00:10:32.764Z,10.37
2018-03-19T00:16:23.467Z,8.13
2018-03-19T00:22:14.242Z,4.63
2018-03-19T00:28:05.019Z,3.04
2018-03-19T00:33:55.735Z,1.9
2018-03-19T00:39:46.506Z,0.79
2018-03-19T00:45:37.295Z,0.79
2018-03-19T00:51:28.044Z,0.95
2018-03-19T00:57:18.773Z,2.65
2018-03-19T01:03:09.559Z,0.94
2018-03-19T01:09:00.332Z,0.81
2018-03-19T01:14:51.025Z,0.5
2018-03-19T01:20:41.794Z,0.46
2018-03-19T01:26:32.564Z,0.43
2018-03-19T01:32:23.278Z,0.46
2018-03-19T01:38:14.043Z,0.4
2018-03-19T01:44:04.779Z,0.46
2018-03-19T01:49:55.554Z,0.54
2018-03-19T01:55:46.261Z,0.51
2018-03-19T02:01:37.065Z,0.6
2018-03-19T02:07:27.775Z,0.59
2018-03-19T02:13:18.487Z,0.6
2018-03-19T02:19:09.268Z,0.56
2018-03-19T02:25:00.068Z,0.57
2018-03-19T02:30:50.786Z,0.64
2018-03-19T02:36:41.518Z,0.8
2018-03-19T02:42:32.260Z,0.64
2018-03-19T02:48:22.989Z,0.62
2018-03-19T02:54:13.756Z,0.76
2018-03-19T03:00:04.991Z,5.39
2018-03-19T03:05:55.252Z,0.81
2018-03-19T03:11:46.016Z,0.71
2018-03-19T03:17:36.764Z,1.01
2018-03-19T03:23:27.451Z,0.85
2018-03-19T03:29:18.227Z,0.69
2018-03-19T03:35:09.079Z,0.84
2018-03-19T03:40:59.692Z,1.67
2018-03-19T03:46:50.441Z,0.49
2018-03-19T03:52:41.204Z,0.42
2018-03-19T03:58:31.963Z,0.5
2018-03-19T04:04:22.703Z,0.44
2018-03-19T04:10:13.407Z,0.45
2018-03-19T04:16:04.189Z,0.47
2018-03-19T04:21:54.899Z,0.88
2018-03-19T04:27:45.644Z,0.99
2018-03-19T04:33:36.501Z,1.24
2018-03-19T04:39:27.176Z,0.89
2018-03-19T04:45:17.933Z,1.19
2018-03-19T04:51:08.640Z,0.56
2018-03-19T04:56:59.383Z,1.11
2018-03-19T05:02:50.159Z,0.89
2018-03-19T05:08:40.826Z,0.6
2018-03-19T05:14:31.659Z,0.52
2018-03-19T05:20:22.335Z,0.63
2018-03-19T05:26:13.091Z,0.56
2018-03-19T05:32:03.834Z,0.6
2018-03-19T05:37:54.641Z,0.93
2018-03-19T05:43:45.379Z,1.13
2018-03-19T05:49:36.049Z,0.99
2018-03-19T05:55:26.806Z,1.1
2018-03-19T06:01:17.628Z,0.99
2018-03-19T06:07:08.353Z,1.17
2018-03-19T06:12:59.085Z,3.84
2018-03-19T06:18:49.759Z,1.67
2018-03-19T06:24:40.497Z,1.18
2018-03-19T06:30:31.320Z,1.05
2018-03-19T06:36:22.034Z,1.28
2018-03-19T06:42:12.876Z,1.24
2018-03-19T06:48:03.530Z,3.93
2018-03-19T06:53:54.312Z,1.5
2018-03-19T06:59:44.993Z,1.9
2018-03-19T07:05:35.763Z,1.7
2018-03-19T07:11:26.509Z,1.85
2018-03-19T07:17:17.303Z,2.33
2018-03-19T07:23:07.989Z,2.41
2018-03-19T07:28:58.803Z,2.68
2018-03-19T07:34:49.483Z,3.46
2018-03-19T07:40:40.282Z,6.86
2018-03-19T07:46:30.971Z,4.81
2018-03-19T07:52:21.687Z,2.48
2018-03-19T07:58:12.473Z,3.21
2018-03-19T08:04:03.215Z,3.92
2018-03-19T08:09:53.962Z,8.58
2018-03-19T08:15:44.753Z,10.77
2018-03-19T08:21:35.451Z,5.47
2018-03-19T08:27:26.227Z,4.59
2018-03-19T08:33:16.967Z,8.79
2018-03-19T08:39:07.740Z,5.44
2018-03-19T08:44:58.438Z,5.51
2018-03-19T08:50:49.203Z,9.13
2018-03-19T08:56:39.944Z,10.91
2018-03-19T09:02:30.718Z,6.34
2018-03-19T09:08:21.436Z,6.98
2018-03-19T09:14:12.206Z,5.07
2018-03-19T09:20:02.968Z,1.61
2018-03-19T09:25:53.695Z,2.19
2018-03-19T09:31:44.558Z,3.11
2018-03-19T09:37:35.211Z,1.45
2018-03-19T09:43:25.976Z,1.35
2018-03-19T09:49:16.746Z,0.74
2018-03-19T09:55:07.490Z,0.68
2018-03-19T10:00:58.218Z,0.7
2018-03-19T10:06:48.982Z,0.8
2018-03-19T10:12:39.772Z,0.86
2018-03-19T10:18:30.520Z,0.61
2018-03-19T10:24:21.292Z,0.79
2018-03-19T10:30:11.984Z,0.67
2018-03-19T10:36:02.786Z,0.68
2018-03-19T10:41:53.498Z,0.75
2018-03-19T10:47:44.309Z,0.85
2018-03-19T10:53:35.020Z,1.01
2018-03-19T10:59:25.731Z,1.47
2018-03-19T11:05:16.473Z,0.88
2018-03-19T11:11:07.260Z,0.77
2018-03-19T11:16:58.053Z,0.86
2018-03-19T11:22:48.776Z,0.72
2018-03-19T11:28:39.516Z,0.87
2018-03-19T11:34:30.350Z,0.94
2018-03-19T11:40:21.017Z,0.74
2018-03-19T11:46:11.767Z,0.6
2018-03-19T11:52:02.510Z,0.61
2018-03-19T11:57:53.329Z,0.65
2018-03-19T12:03:44.025Z,0.61
2018-03-19T12:09:34.852Z,0.61
2018-03-19T12:15:25.554Z,0.65
2018-03-19T12:21:16.296Z,0.66
2018-03-19T12:27:07.137Z,0.85
2018-03-19T12:32:57.817Z,0.7
2018-03-19T12:38:48.599Z,0.76
2018-03-19T12:44:39.343Z,4.21
2018-03-19T12:50:30.161Z,5.1
2018-03-19T12:56:20.827Z,4.72
2018-03-19T13:02:11.620Z,4.38
2018-03-19T13:08:02.387Z,4.74
2018-03-19T13:13:53.112Z,3.79
2018-03-19T13:19:43.906Z,2.99
2018-03-19T13:25:34.684Z,3.08
2018-03-19T13:31:25.449Z,3.14
2018-03-19T13:37:16.162Z,3.64
2018-03-19T13:43:06.940Z,3.56
2018-03-19T13:48:57.709Z,5.66
2018-03-19T13:54:48.516Z,3.66
2018-03-19T14:00:39.199Z,3.39
2018-03-19T14:06:29.995Z,3.73
2018-03-19T14:12:20.767Z,4.68
2018-03-19T14:18:11.567Z,3.22
2018-03-19T14:24:02.263Z,3.08
2018-03-19T14:29:53.038Z,5.85
2018-03-19T14:35:43.830Z,4.08
2018-03-19T14:41:34.665Z,5.21
2018-03-19T14:47:25.330Z,7.11
2018-03-19T14:53:16.101Z,5.88
2018-03-19T14:59:06.884Z,7.21
2018-03-19T15:04:57.658Z,4.07
2018-03-19T15:10:48.402Z,3.98
2018-03-19T15:16:39.146Z,3.97
2018-03-19T15:22:29.943Z,5.35
2018-03-19T15:28:20.721Z,8.87
2018-03-19T15:34:11.443Z,7
2018-03-19T15:40:02.359Z,4.76
2018-03-19T15:45:53.046Z,4.52
2018-03-19T15:51:43.717Z,5
2018-03-19T15:57:34.505Z,4.25
2018-03-19T16:03:25.259Z,6.23
2018-03-19T16:09:16.039Z,7.32
2018-03-19T16:15:06.775Z,9.94
2018-03-19T16:20:57.620Z,5.6
2018-03-19T16:26:48.310Z,7.1
2018-03-19T16:32:39.066Z,12.02
2018-03-19T16:38:29.865Z,15.09
2018-03-19T16:44:20.602Z,6.59
2018-03-19T16:50:11.378Z,6.15
2018-03-19T16:56:02.106Z,6.83
2018-03-19T17:01:52.899Z,12.01
2018-03-19T17:07:43.651Z,9.49
2018-03-19T17:13:34.474Z,11.33
2018-03-19T17:19:25.183Z,11.1
2018-03-19T17:25:15.925Z,11.59
2018-03-19T17:31:06.689Z,11.49
2018-03-19T17:36:57.464Z,9.87
2018-03-19T17:42:48.234Z,10.73
2018-03-19T17:48:38.968Z,11.3
2018-03-19T17:54:29.739Z,13.72
2018-03-19T18:00:20.468Z,14.24
2018-03-19T18:06:11.208Z,18.48
2018-03-19T18:12:01.964Z,10.85
2018-03-19T18:17:52.769Z,15.88
2018-03-19T18:23:43.497Z,21.64
2018-03-19T18:29:34.262Z,26.12
2018-03-19T18:35:25.015Z,16.13
2018-03-19T18:41:15.779Z,21.53
2018-03-19T18:47:06.532Z,12.07
2018-03-19T18:52:57.286Z,9.3
2018-03-19T18:58:48.054Z,9.47
2018-03-19T19:04:38.793Z,10.91
2018-03-19T19:10:29.570Z,11.92
2018-03-19T19:16:20.298Z,21.09
2018-03-19T19:22:11.057Z,12.59
2018-03-19T19:28:01.794Z,13.74
2018-03-19T19:33:52.564Z,17.56
2018-03-19T19:39:43.299Z,25.91
2018-03-19T19:45:34.046Z,18.63
2018-03-19T19:51:24.802Z,26.83
2018-03-19T19:57:15.546Z,29.33
2018-03-19T20:03:06.294Z,32.39
2018-03-19T20:08:57.048Z,24.59
2018-03-19T20:14:47.851Z,26.83
2018-03-19T20:20:38.561Z,25.09
2018-03-19T20:26:29.355Z,23.55
2018-03-19T20:32:20.087Z,25.42
2018-03-19T20:38:10.822Z,23.63
2018-03-19T20:44:01.540Z,21.32
2018-03-19T20:49:52.325Z,22.4
2018-03-19T20:55:43.071Z,24.18
2018-03-19T21:01:33.812Z,23.29
2018-03-19T21:07:24.546Z,21.7
2018-03-19T21:13:15.318Z,20.7
2018-03-19T21:19:06.038Z,26.13
2018-03-19T21:24:56.822Z,21.62
2018-03-19T21:30:47.578Z,27.25
2018-03-19T21:36:38.292Z,24.84
2018-03-19T21:42:29.052Z,20.7
2018-03-19T21:48:19.828Z,19.59
2018-03-19T21:54:10.562Z,20.04
2018-03-19T22:00:01.271Z,21.36
2018-03-19T22:05:52.075Z,16.81
2018-03-19T22:11:42.789Z,11.68
2018-03-19T22:17:33.580Z,18.05
2018-03-19T22:23:24.259Z,11.75
2018-03-19T22:29:15.040Z,16.74
2018-03-19T22:35:05.806Z,12.17
2018-03-19T22:40:56.542Z,12.6
2018-03-19T22:46:47.275Z,37.77
2018-03-19T22:52:38.005Z,31.73
2018-03-19T22:58:28.776Z,28.19
2018-03-19T23:04:19.518Z,26.67
2018-03-19T23:10:10.277Z,32.47
2018-03-19T23:16:01.020Z,35.65
2018-03-19T23:21:51.733Z,41.46
2018-03-19T23:27:42.499Z,35.01
2018-03-19T23:33:33.272Z,34.39
2018-03-19T23:39:23.998Z,27.68
2018-03-19T23:45:14.753Z,28.18
2018-03-19T23:51:05.527Z,33.7
2018-03-19T23:56:56.324Z,33.41
